Time;durP1;ratioP1;P1;durP2;ratioP2;P2;SDS_P1;SDS_P2;PMS_P1;PMS_P2;Temp;Humidity;BMP_temperature;BMP_pressure;BME280_temperature;BME280_humidity;BME280_pressure;Samples;Min_cycle;Max_cycle;Signal;HPM_P1;HPM_P2
2021/04/25 00:01:13;;;;;;;17.75;3.60;;;;;;;6.52;58.21;100823.97;115627;1200;23136;-80
2021/04/25 00:03:41;;;;;;;13.97;3.27;;;;;;;6.51;58.55;100827.98;115713;1199;23274;-81
2021/04/25 00:06:10;;;;;;;14.87;3.43;;;;;;;6.46;58.53;100822.95;115640;1200;23120;-80
2021/04/25 00:08:39;;;;;;;15.40;3.20;;;;;;;6.43;58.60;100823.84;115478;1203;26720;-79
2021/04/25 00:11:07;;;;;;;14.40;3.65;;;;;;;6.42;58.75;100822.27;115335;1199;26108;-80
2021/04/25 00:13:36;;;;;;;14.90;4.67;;;;;;;6.39;58.83;100817.61;115584;1200;23118;-81
2021/04/25 00:16:07;;;;;;;16.03;3.83;;;;;;;6.38;58.68;100816.03;115591;1199;23142;-80
2021/04/25 00:18:36;;;;;;;16.27;3.93;;;;;;;6.38;59.21;100811.27;115524;1200;23357;-80
2021/04/25 00:21:05;;;;;;;13.30;3.10;;;;;;;6.40;59.26;100806.07;115454;1202;23275;-80
2021/04/25 00:23:34;;;;;;;12.67;3.40;;;;;;;6.42;59.32;100802.85;115442;1200;23302;-79
2021/04/25 00:26:04;;;;;;;17.10;3.35;;;;;;;6.41;59.19;100792.99;115556;1202;23114;-78
2021/04/25 00:28:33;;;;;;;16.05;3.75;;;;;;;6.41;59.42;100806.86;115461;1200;23124;-78
2021/04/25 00:31:01;;;;;;;12.65;3.70;;;;;;;6.39;59.17;100801.72;115491;1198;26252;-79
2021/04/25 00:33:30;;;;;;;15.27;3.27;;;;;;;6.36;59.13;100808.16;115349;1202;26255;-78
2021/04/25 00:35:58;;;;;;;13.20;3.55;;;;;;;6.35;59.11;100800.28;115420;1199;23112;-78
2021/04/25 00:38:27;;;;;;;17.70;3.50;;;;;;;6.35;59.26;100797.52;115512;1199;23255;-79
2021/04/25 00:40:55;;;;;;;14.80;3.40;;;;;;;6.33;59.14;100797.93;115515;1200;27947;-79
2021/04/25 00:43:23;;;;;;;16.40;4.05;;;;;;;6.31;59.18;100796.83;115570;1202;23146;-79
2021/04/25 00:45:52;;;;;;;16.10;3.85;;;;;;;6.29;59.30;100791.70;115524;1200;23118;-79
2021/04/25 00:48:23;;;;;;;17.40;4.40;;;;;;;6.29;59.36;100793.72;115545;1200;23136;-79
2021/04/25 00:50:50;;;;;;;;;;;;;;;6.28;59.22;100790.16;115938;1164;24997;31
2021/04/25 00:53:20;;;;;;;15.63;3.87;;;;;;;6.27;59.35;100791.36;115508;1195;25925;-60
2021/04/25 00:55:49;;;;;;;13.80;3.40;;;;;;;6.28;59.33;100794.92;115280;1200;23098;-60
2021/04/25 00:58:19;;;;;;;13.88;4.33;;;;;;;6.28;59.44;100792.93;115371;1199;23143;-60
2021/04/25 01:00:48;;;;;;;20.50;5.70;;;;;;;6.23;59.76;100793.45;115252;1200;27311;-60
2021/04/25 01:03:19;;;;;;;17.60;4.60;;;;;;;6.20;60.01;100794.33;115159;1199;26238;-60
2021/04/25 01:05:48;;;;;;;19.80;4.97;;;;;;;6.17;60.36;100797.97;115231;1200;23265;-61
2021/04/25 01:08:17;;;;;;;13.20;3.80;;;;;;;6.14;60.40;100786.98;114922;1202;23106;-61
2021/04/25 01:10:46;;;;;;;16.80;4.60;;;;;;;6.12;60.10;100797.72;114953;1199;23393;-60
2021/04/25 01:13:15;;;;;;;15.35;4.75;;;;;;;6.12;60.40;100790.19;115187;1202;23108;-60
2021/04/25 01:15:43;;;;;;;15.25;3.50;;;;;;;6.10;60.30;100795.39;115245;1202;23947;-61
2021/04/25 01:18:13;;;;;;;15.80;3.55;;;;;;;6.10;60.37;100803.71;115231;1199;23108;-60
2021/04/25 01:20:41;;;;;;;16.85;4.25;;;;;;;6.09;60.39;100795.80;115254;1199;23112;-61
2021/04/25 01:23:09;;;;;;;21.45;4.55;;;;;;;6.06;60.90;100802.23;115177;1202;23143;-60
2021/04/25 01:25:39;;;;;;;15.53;4.53;;;;;;;6.00;60.89;100806.75;115308;1198;26307;-60
2021/04/25 01:28:07;;;;;;;16.15;5.35;;;;;;;5.97;60.73;100807.60;115284;1203;23143;-59
2021/04/25 01:30:36;;;;;;;18.20;4.40;;;;;;;5.97;60.62;100796.52;115213;1200;23115;-60
2021/04/25 01:33:04;;;;;;;16.90;4.73;;;;;;;5.96;60.47;100798.50;115165;1199;23182;-59
2021/04/25 01:35:33;;;;;;;18.70;4.60;;;;;;;5.98;60.67;100798.84;115137;1202;23121;-60
2021/04/25 01:38:02;;;;;;;19.70;4.20;;;;;;;5.99;60.59;100799.63;115260;1199;23353;-60
2021/04/25 01:40:32;;;;;;;15.50;3.93;;;;;;;5.94;60.71;100802.95;115160;1199;23134;-60
2021/04/25 01:43:01;;;;;;;13.93;4.83;;;;;;;5.91;60.82;100798.25;115481;1199;26268;-60
2021/04/25 01:45:31;;;;;;;14.70;4.10;;;;;;;5.90;60.99;100793.94;115384;1200;23150;-60
2021/04/25 01:48:02;;;;;;;17.40;4.00;;;;;;;5.85;61.10;100794.45;115476;1202;23108;-58
2021/04/25 01:50:31;;;;;;;16.00;3.80;;;;;;;5.80;60.86;100795.71;115235;1200;23115;-60
2021/04/25 01:53:00;;;;;;;16.77;4.30;;;;;;;5.77;60.96;100791.05;115254;1200;24597;-60
2021/04/25 01:55:30;;;;;;;16.63;3.90;;;;;;;5.77;60.59;100787.50;115131;1199;23135;-61
2021/04/25 01:57:59;;;;;;;15.37;3.43;;;;;;;5.76;60.81;100786.71;115350;1199;26749;-58
2021/04/25 02:00:33;;;;;;;18.50;3.95;;;;;;;5.73;60.76;100790.36;115291;1202;26709;-60
2021/04/25 02:03:01;;;;;;;14.05;3.75;;;;;;;5.73;60.58;100784.83;114966;1200;23130;-62
2021/04/25 02:05:30;;;;;;;11.80;2.90;;;;;;;5.73;60.34;100780.04;115257;1200;23103;-62
2021/04/25 02:07:59;;;;;;;14.40;3.60;;;;;;;5.74;59.72;100775.28;115315;1200;23115;-60
2021/04/25 02:10:28;;;;;;;12.73;3.00;;;;;;;5.74;59.57;100780.83;115133;1200;23564;-60
2021/04/25 02:12:57;;;;;;;14.30;3.30;;;;;;;5.72;59.90;100775.72;115286;1200;23109;-60
2021/04/25 02:15:27;;;;;;;14.00;3.00;;;;;;;5.75;59.86;100785.17;115282;1199;27386;-59
2021/04/25 02:17:56;;;;;;;12.55;2.65;;;;;;;5.73;59.26;100782.81;115321;1202;23112;-60
2021/04/25 02:20:26;;;;;;;10.50;2.50;;;;;;;5.73;59.30;100770.97;115199;1200;23265;-60
2021/04/25 02:22:55;;;;;;;13.00;2.40;;;;;;;5.72;59.02;100770.19;115122;1200;27847;-60
2021/04/25 02:25:24;;;;;;;12.53;2.27;;;;;;;5.70;58.49;100775.38;115235;1202;27246;-60
2021/04/25 02:27:54;;;;;;;9.15;1.95;;;;;;;5.66;58.38;100773.91;115143;1200;23112;-59
2021/04/25 02:30:26;;;;;;;14.00;2.07;;;;;;;5.60;58.74;100778.41;115232;1203;23099;-59
2021/04/25 02:32:55;;;;;;;9.50;2.00;;;;;;;5.55;58.30;100776.14;115376;1202;24768;-59
2021/04/25 02:35:25;;;;;;;11.60;1.90;;;;;;;5.49;58.81;100780.63;115266;1202;26330;-59
2021/04/25 02:37:54;;;;;;;10.50;2.20;;;;;;;5.44;58.75;100770.09;115359;1200;23199;-60
2021/04/25 02:40:25;;;;;;;11.47;1.73;;;;;;;5.41;58.65;100773.70;118493;1199;22859;-60
2021/04/25 02:42:55;;;;;;;7.30;1.50;;;;;;;5.38;58.77;100767.03;115024;1200;23263;-60
2021/04/25 02:45:25;;;;;;;7.85;1.70;;;;;;;5.37;58.52;100773.02;115012;1198;23112;-60
2021/04/25 02:47:56;;;;;;;12.50;2.15;;;;;;;5.31;58.79;100767.22;114898;1202;27050;-60
2021/04/25 02:50:28;;;;;;;7.73;1.43;;;;;;;5.28;58.58;100772.81;114925;1200;23215;-60
2021/04/25 02:52:57;;;;;;;8.00;1.90;;;;;;;5.22;58.19;100783.63;115223;1202;23105;-61
2021/04/25 02:55:26;;;;;;;11.00;1.80;;;;;;;5.16;58.09;100774.28;115251;1199;29012;-60
2021/04/25 02:57:55;;;;;;;9.25;1.50;;;;;;;5.10;58.40;100775.20;115115;1200;23325;-60
2021/04/25 03:00:26;;;;;;;7.20;1.60;;;;;;;5.09;58.67;100759.83;115244;1198;23268;-60
2021/04/25 03:02:55;;;;;;;9.70;1.55;;;;;;;5.12;58.82;100758.95;115216;1200;23112;-60
2021/04/25 03:05:24;;;;;;;7.70;1.73;;;;;;;5.13;58.13;100775.13;115261;1203;24733;-60
2021/04/25 03:07:53;;;;;;;6.03;1.20;;;;;;;5.11;57.60;100760.94;115254;1199;26333;-60
2021/04/25 03:10:24;;;;;;;8.15;1.50;;;;;;;5.13;57.64;100764.05;115071;1199;26000;-60
2021/04/25 03:12:53;;;;;;;8.13;1.20;;;;;;;5.12;57.45;100768.04;115463;1199;23537;-60
2021/04/25 03:15:22;;;;;;;9.00;1.30;;;;;;;5.13;57.17;100774.36;115075;1199;24916;-60
2021/04/25 03:17:51;;;;;;;9.40;1.60;;;;;;;5.11;57.57;100771.25;115185;1200;23129;-60
2021/04/25 03:20:22;;;;;;;7.40;1.50;;;;;;;5.09;57.77;100771.66;115276;1199;23158;-60
2021/04/25 03:22:52;;;;;;;9.57;1.57;;;;;;;5.06;57.68;100768.97;115202;1200;25896;-60
2021/04/25 03:25:20;;;;;;;7.00;1.13;;;;;;;5.01;57.95;100777.80;115203;1203;23128;-60
2021/04/25 03:27:49;;;;;;;7.20;1.75;;;;;;;4.98;58.02;100773.11;115113;1200;23094;-60
2021/04/25 03:30:20;;;;;;;6.40;1.20;;;;;;;4.96;57.95;100778.29;115278;1200;27062;-60
2021/04/25 03:32:49;;;;;;;8.70;1.40;;;;;;;4.94;58.07;100770.42;115355;1200;23565;-61
2021/04/25 03:35:18;;;;;;;11.70;1.90;;;;;;;4.97;57.83;100768.77;115180;1199;23108;-60
2021/04/25 03:37:47;;;;;;;6.95;1.35;;;;;;;4.96;57.98;100773.54;115082;1199;23111;-60
2021/04/25 03:40:18;;;;;;;8.70;1.70;;;;;;;4.94;57.88;100762.88;115123;1200;23108;-60
2021/04/25 03:42:48;;;;;;;8.60;1.57;;;;;;;4.96;57.81;100768.01;115097;1200;23281;-60
2021/04/25 03:45:18;;;;;;;9.60;1.40;;;;;;;4.97;57.96;100766.78;115262;1202;23090;-63
2021/04/25 03:47:48;;;;;;;10.07;1.63;;;;;;;4.99;58.72;100758.08;115230;1202;28323;-60
2021/04/25 03:50:17;;;;;;;;;;;;;;;5.01;59.15;100758.43;115120;1206;23293;-60
2021/04/25 03:52:47;;;;;;;7.80;1.40;;;;;;;5.00;58.78;100767.92;115123;1200;21607;-61
2021/04/25 03:55:19;;;;;;;9.73;2.00;;;;;;;4.98;58.19;100765.59;115208;1199;23113;-60
2021/04/25 03:57:48;;;;;;;6.73;1.30;;;;;;;4.98;58.70;100762.03;115175;1198;27387;-61
2021/04/25 04:00:19;;;;;;;9.90;1.55;;;;;;;4.99;59.14;100756.06;115136;1200;23261;-61
2021/04/25 04:02:49;;;;;;;8.40;1.40;;;;;;;5.02;59.11;100771.83;115167;1202;23261;-61
2021/04/25 04:05:18;;;;;;;9.20;1.33;;;;;;;4.99;58.75;100767.13;115231;1200;27877;-60
2021/04/25 04:07:46;;;;;;;9.27;1.60;;;;;;;4.94;57.93;100773.19;115334;1202;28969;-61
2021/04/25 04:10:15;;;;;;;9.20;1.60;;;;;;;4.91;57.94;100772.05;115094;1200;23105;-61
2021/04/25 04:12:44;;;;;;;9.35;1.70;;;;;;;4.91;58.22;100774.03;115134;1202;26066;-60
2021/04/25 04:15:15;;;;;;;11.30;1.90;;;;;;;4.96;58.99;100772.75;114941;1200;28713;-60
2021/04/25 04:17:43;;;;;;;9.40;1.90;;;;;;;4.98;58.96;100776.66;115263;1200;23109;-61
2021/04/25 04:20:14;;;;;;;7.20;1.50;;;;;;;5.00;59.44;100782.55;115087;1199;23084;-59
2021/04/25 04:22:41;;;;;;;;;;;;;;;4.98;57.87;100784.17;115051;1206;23106;-60
2021/04/25 04:25:12;;;;;;;8.50;1.50;;;;;;;4.91;57.96;100783.12;115207;1202;21689;-60
2021/04/25 04:27:42;;;;;;;9.10;1.30;;;;;;;4.85;57.91;100779.30;115071;1202;23143;-60
2021/04/25 04:30:13;;;;;;;10.27;1.67;;;;;;;4.82;58.14;100782.14;115147;1200;23127;-60
2021/04/25 04:32:42;;;;;;;7.50;1.40;;;;;;;4.78;57.80;100781.41;115223;1202;25971;-60
2021/04/25 04:35:12;;;;;;;8.10;1.30;;;;;;;4.76;57.43;100781.06;115150;1199;23137;-61
2021/04/25 04:37:41;;;;;;;7.23;1.00;;;;;;;4.74;57.58;100772.41;115145;1199;23143;-60
2021/04/25 04:40:12;;;;;;;7.10;1.50;;;;;;;4.74;57.51;100772.41;115016;1203;23227;-61
2021/04/25 04:42:41;;;;;;;9.25;1.65;;;;;;;4.74;57.78;100787.02;115141;1202;23323;-61
2021/04/25 04:45:13;;;;;;;7.70;1.20;;;;;;;4.74;58.00;100784.26;115156;1199;23212;-61
2021/04/25 04:47:43;;;;;;;6.40;1.20;;;;;;;4.75;58.08;100785.83;115264;1199;26236;-60
2021/04/25 04:50:14;;;;;;;9.55;1.40;;;;;;;4.75;58.47;100780.30;115334;1202;23295;-60
2021/04/25 04:52:43;;;;;;;6.70;1.10;;;;;;;4.76;58.66;100786.59;115233;1202;23116;-60
2021/04/25 04:55:13;;;;;;;6.30;1.13;;;;;;;4.77;58.66;100791.72;115134;1199;26178;-60
2021/04/25 04:57:42;;;;;;;5.20;1.03;;;;;;;4.77;58.43;100786.19;115232;1202;27955;-60
2021/04/25 05:00:13;;;;;;;4.80;0.83;;;;;;;4.79;57.73;100785.75;115002;1200;23255;-61
2021/04/25 05:02:42;;;;;;;6.60;1.10;;;;;;;4.81;57.71;100791.64;115241;1202;23112;-60
2021/04/25 05:05:12;;;;;;;5.07;1.00;;;;;;;4.83;57.50;100790.01;115189;1200;23112;-60
2021/04/25 05:07:41;;;;;;;6.00;1.00;;;;;;;4.86;57.28;100785.62;115200;1199;27343;-60
2021/04/25 05:10:12;;;;;;;7.00;0.90;;;;;;;4.88;56.98;100783.20;115119;1203;26596;-60
2021/04/25 05:12:40;;;;;;;6.60;1.10;;;;;;;4.90;57.29;100795.38;118582;1163;112378;-76
2021/04/25 05:15:10;;;;;;;6.25;1.00;;;;;;;4.92;57.16;100798.49;115328;1200;23277;-76
2021/04/25 05:17:38;;;;;;;5.95;0.85;;;;;;;4.94;57.46;100798.09;115498;1200;23147;-77
2021/04/25 05:20:08;;;;;;;5.75;1.10;;;;;;;4.98;57.51;100795.24;115293;1200;23221;-77
2021/04/25 05:22:36;;;;;;;6.10;1.10;;;;;;;5.01;56.66;100797.92;115305;1199;24275;-77
2021/04/25 05:25:07;;;;;;;5.80;1.10;;;;;;;5.06;57.26;100799.41;115505;1200;23347;-78
2021/04/25 05:27:36;;;;;;;6.03;1.20;;;;;;;5.09;57.34;100804.11;116271;1199;23225;-78
2021/04/25 05:30:06;;;;;;;6.40;1.10;;;;;;;5.11;56.91;100804.45;116193;1200;23236;-78
2021/04/25 05:32:35;;;;;;;7.37;1.17;;;;;;;5.12;56.70;100812.32;116121;1199;23218;-78
2021/04/25 05:35:04;;;;;;;5.20;1.10;;;;;;;5.16;56.35;100809.47;116178;1199;23114;-78
2021/04/25 05:37:32;;;;;;;7.80;1.20;;;;;;;5.14;54.76;100807.14;116190;1200;23124;-78
2021/04/25 05:40:01;;;;;;;5.60;1.20;;;;;;;5.11;54.82;100798.92;116160;1200;23093;-78
2021/04/25 05:42:29;;;;;;;6.07;0.97;;;;;;;5.10;55.21;100806.44;116138;1199;23114;-78
2021/04/25 05:44:57;;;;;;;6.85;1.00;;;;;;;5.10;54.99;100817.51;116081;1200;23818;-78
2021/04/25 05:47:26;;;;;;;4.80;1.00;;;;;;;5.09;54.30;100812.41;116184;1199;27160;-78
2021/04/25 05:49:54;;;;;;;6.60;1.00;;;;;;;5.08;54.72;100817.16;116085;1200;23450;-78
2021/04/25 05:52:23;;;;;;;6.45;1.15;;;;;;;5.11;55.13;100813.52;116155;1199;23215;-78
2021/04/25 05:54:52;;;;;;;8.70;1.30;;;;;;;5.13;54.75;100816.64;116269;1200;23163;-78
2021/04/25 05:57:20;;;;;;;6.00;1.20;;;;;;;5.16;54.99;100820.54;116206;1200;23133;-78
2021/04/25 05:59:48;;;;;;;6.60;1.20;;;;;;;5.14;54.26;100818.20;116063;1199;26016;-78
2021/04/25 06:02:17;;;;;;;5.87;1.10;;;;;;;5.12;53.47;100817.07;116132;1199;23110;-78
2021/04/25 06:04:46;;;;;;;6.43;1.20;;;;;;;5.13;53.99;100822.17;116084;1199;23108;-78
2021/04/25 06:07:15;;;;;;;8.10;1.30;;;;;;;5.14;54.22;100825.72;116169;1199;23243;-78
2021/04/25 06:09:43;;;;;;;10.50;1.50;;;;;;;5.16;54.34;100818.56;116172;1199;23117;-78
2021/04/25 06:12:13;;;;;;;7.05;1.40;;;;;;;5.20;54.46;100821.24;116091;1200;23104;-78
2021/04/25 06:14:42;;;;;;;6.90;0.90;;;;;;;5.27;54.45;100821.09;116165;1200;24934;-78
2021/04/25 06:17:11;;;;;;;3.93;0.80;;;;;;;5.33;54.08;100822.16;116088;1199;23117;-78
2021/04/25 06:19:39;;;;;;;6.55;0.70;;;;;;;5.36;52.75;100824.08;116200;1199;23127;-79
2021/04/25 06:22:09;;;;;;;6.80;1.00;;;;;;;5.39;53.28;100825.97;116097;1200;23112;-78
2021/04/25 06:24:37;;;;;;;6.40;0.75;;;;;;;5.44;52.88;100811.63;116227;1200;27195;-78
2021/04/25 06:27:06;;;;;;;7.70;1.00;;;;;;;5.49;53.06;100824.95;115742;1203;23118;-76
2021/04/25 06:29:35;;;;;;;6.40;1.10;;;;;;;5.53;53.30;100818.13;115549;1200;23105;-76
2021/04/25 06:32:04;;;;;;;4.00;0.70;;;;;;;5.61;53.05;100821.49;115398;1203;23122;-77
2021/04/25 06:34:33;;;;;;;4.77;0.90;;;;;;;5.67;52.98;100817.78;115414;1199;23458;-77
2021/04/25 06:37:02;;;;;;;5.10;0.70;;;;;;;5.75;52.89;100823.95;115198;1200;23150;-77
2021/04/25 06:39:30;;;;;;;9.25;0.80;;;;;;;5.83;52.75;100830.09;115302;1203;23121;-76
2021/04/25 06:41:58;;;;;;;4.33;0.77;;;;;;;5.88;52.53;100815.73;115211;1200;26347;-76
2021/04/25 06:44:27;;;;;;;6.45;0.75;;;;;;;5.94;51.91;100825.11;115287;1200;24810;-77
2021/04/25 06:46:55;;;;;;;5.00;0.70;;;;;;;5.99;52.13;100827.34;115420;1199;23104;-77
2021/04/25 06:49:24;;;;;;;7.95;0.80;;;;;;;6.01;51.69;100834.02;115275;1200;23446;-76
2021/04/25 06:51:53;;;;;;;4.83;0.70;;;;;;;6.05;51.44;100833.92;115247;1199;23125;-76
2021/04/25 06:54:22;;;;;;;3.30;0.50;;;;;;;6.02;50.54;100832.80;115242;1200;23286;-77
2021/04/25 06:56:50;;;;;;;6.30;0.80;;;;;;;5.97;51.35;100827.00;115351;1199;23170;-76
2021/04/25 06:59:18;;;;;;;3.65;0.45;;;;;;;5.88;50.05;100841.45;115250;1200;23153;-76
2021/04/25 07:01:47;;;;;;;3.60;0.30;;;;;;;5.82;51.05;100825.75;115293;1200;23272;-76
2021/04/25 07:04:16;;;;;;;3.45;0.40;;;;;;;5.81;51.64;100833.30;115244;1200;23306;-76
2021/04/25 07:06:44;;;;;;;3.55;0.40;;;;;;;5.81;50.64;100844.39;115184;1199;25015;-76
2021/04/25 07:09:13;;;;;;;3.63;0.40;;;;;;;5.82;50.12;100842.38;115316;1199;23117;-77
2021/04/25 07:11:41;;;;;;;3.67;0.30;;;;;;;5.85;50.33;100839.57;115477;1200;23119;-76
2021/04/25 07:14:10;;;;;;;2.27;0.30;;;;;;;5.93;50.02;100831.86;115280;1199;23122;-76
2021/04/25 07:16:39;;;;;;;1.90;0.30;;;;;;;6.05;49.86;100840.25;115460;1200;23473;-76
2021/04/25 07:19:08;;;;;;;6.75;0.45;;;;;;;6.11;50.14;100837.73;115393;1199;24427;-76
2021/04/25 07:21:37;;;;;;;4.50;0.60;;;;;;;6.15;49.68;100841.19;115270;1199;23146;-76
2021/04/25 07:24:06;;;;;;;2.70;0.50;;;;;;;6.25;49.83;100843.70;115195;1200;23142;-75
2021/04/25 07:26:35;;;;;;;2.80;0.50;;;;;;;6.33;49.09;100838.77;115423;1200;23150;-76
2021/04/25 07:29:04;;;;;;;2.95;0.30;;;;;;;6.43;49.00;100832.16;115520;1200;23118;-76
2021/04/25 07:31:33;;;;;;;3.20;0.40;;;;;;;6.51;49.13;100833.52;115531;1200;23112;-76
2021/04/25 07:34:01;;;;;;;3.70;0.50;;;;;;;6.54;49.33;100832.63;115473;1200;23128;-76
2021/04/25 07:36:29;;;;;;;3.20;0.40;;;;;;;6.59;48.94;100834.10;115480;1203;23119;-76
2021/04/25 07:38:58;;;;;;;2.10;0.40;;;;;;;6.62;49.13;100836.02;115533;1199;23258;-77
2021/04/25 07:41:26;;;;;;;7.65;0.50;;;;;;;6.65;48.74;100830.36;115283;1200;23108;-76
2021/04/25 07:43:55;;;;;;;2.00;0.30;;;;;;;6.65;48.23;100830.36;115250;1201;23122;-76
2021/04/25 07:46:23;;;;;;;3.87;0.40;;;;;;;6.65;48.86;100838.69;115344;1200;23118;-76
2021/04/25 07:48:52;;;;;;;2.15;0.40;;;;;;;6.62;48.76;100838.79;115356;1200;26912;-76
2021/04/25 07:51:23;;;;;;;1.45;0.30;;;;;;;6.61;48.11;100840.78;115388;1199;23138;-75
2021/04/25 07:53:52;;;;;;;4.87;0.57;;;;;;;6.64;48.34;100836.36;115364;1200;26350;-77
2021/04/25 07:56:21;;;;;;;4.05;0.50;;;;;;;6.71;48.42;100830.59;115351;1203;23114;-76
2021/04/25 07:58:50;;;;;;;3.30;0.50;;;;;;;6.78;48.79;100830.41;115341;1200;26188;-77
2021/04/25 08:01:20;;;;;;;3.00;0.30;;;;;;;6.82;46.34;100833.86;115717;1199;27362;-78
2021/04/25 08:03:48;;;;;;;4.25;0.40;;;;;;;6.82;48.09;100826.33;115559;1203;23112;-78
2021/04/25 08:06:17;;;;;;;2.73;0.30;;;;;;;6.94;47.48;100831.13;115706;1199;27462;-79
2021/04/25 08:08:45;;;;;;;6.70;0.50;;;;;;;6.93;45.76;100851.77;115551;1200;23179;-79
2021/04/25 08:11:14;;;;;;;4.50;0.70;;;;;;;6.85;47.73;100828.20;115443;1200;23153;-77
2021/04/25 08:13:42;;;;;;;3.35;0.40;;;;;;;6.87;47.08;100834.09;115475;1200;23891;-77
2021/04/25 08:16:12;;;;;;;5.10;0.50;;;;;;;6.94;46.85;100833.12;115439;1200;23259;-76
2021/04/25 08:18:40;;;;;;;3.90;0.45;;;;;;;7.00;46.21;100842.45;115398;1203;23151;-76
2021/04/25 08:21:09;;;;;;;2.60;0.30;;;;;;;7.01;45.67;100817.05;115343;1200;23126;-76
2021/04/25 08:23:38;;;;;;;2.50;0.40;;;;;;;7.04;46.42;100818.94;115414;1200;24903;-76
2021/04/25 08:26:06;;;;;;;3.67;0.60;;;;;;;7.17;46.58;100816.97;115405;1199;23107;-76
2021/04/25 08:28:36;;;;;;;3.00;0.50;;;;;;;7.28;46.86;100816.66;115320;1200;23148;-75
2021/04/25 08:31:04;;;;;;;1.80;0.43;;;;;;;7.41;46.93;100825.75;115483;1200;23121;-78
2021/04/25 08:33:33;;;;;;;4.10;0.50;;;;;;;7.49;45.06;100826.34;115448;1199;26253;-77
2021/04/25 08:36:02;;;;;;;1.93;0.50;;;;;;;7.57;45.84;100808.22;115664;1203;23113;-75
2021/04/25 08:38:30;;;;;;;3.85;0.40;;;;;;;7.69;46.18;100801.88;115420;1203;23227;-76
2021/04/25 08:41:02;;;;;;;2.75;0.50;;;;;;;7.80;44.55;100805.09;115286;1200;23132;-76
2021/04/25 08:43:31;;;;;;;2.10;0.40;;;;;;;7.84;44.70;100808.54;115430;1200;23115;-78
2021/04/25 08:46:02;;;;;;;4.40;0.40;;;;;;;7.83;43.61;100804.19;115458;1199;23146;-76
2021/04/25 08:48:32;;;;;;;2.80;0.30;;;;;;;7.85;43.34;100802.53;115384;1203;23122;-76
2021/04/25 08:51:02;;;;;;;1.33;0.27;;;;;;;7.92;42.18;100804.30;115394;1200;23117;-76
2021/04/25 08:53:32;;;;;;;1.65;0.40;;;;;;;7.87;43.50;100802.86;115393;1200;23158;-76
2021/04/25 08:56:00;;;;;;;3.55;0.50;;;;;;;7.87;41.70;100810.41;115928;1199;26315;-77
2021/04/25 08:58:29;;;;;;;3.27;0.50;;;;;;;7.80;42.22;100805.09;115805;1199;24891;-75
2021/04/25 09:00:58;;;;;;;3.70;0.40;;;;;;;7.77;41.51;100814.31;115989;1200;23140;-77
2021/04/25 09:03:26;;;;;;;3.37;0.40;;;;;;;7.82;42.26;100799.87;115897;1199;23253;-76
2021/04/25 09:05:58;;;;;;;2.60;0.40;;;;;;;7.84;42.91;100800.20;115925;1199;23174;-77
2021/04/25 09:10:38;;;;;;;2.03;0.33;;;;;;;7.80;41.83;100802.32;114996;1193;23095;-60
2021/04/25 09:13:17;;;;;;;2.20;0.40;;;;;;;7.73;41.58;100794.20;114499;1196;23451;-59
2021/04/25 09:15:47;;;;;;;3.75;0.30;;;;;;;7.63;41.24;100798.10;118583;1201;22806;-60
2021/04/25 09:18:16;;;;;;;2.98;0.48;;;;;;;7.51;41.00;100810.00;118540;1202;23198;-61
2021/04/25 09:20:47;;;;;;;2.07;0.40;;;;;;;7.46;40.79;100800.22;118654;1202;22837;-61
2021/04/25 09:23:29;;;;;;;;;;;;;;;7.48;42.10;100799.77;118686;1204;22810;-62
2021/04/25 09:26:00;;;;;;;1.73;0.40;;;;;;;7.69;43.11;100791.55;118650;1196;21990;-61
2021/04/25 09:28:29;;;;;;;2.70;0.40;;;;;;;7.90;41.49;100788.05;118621;1196;22910;-61
2021/04/25 09:31:00;;;;;;;3.37;0.30;;;;;;;7.97;41.19;100787.03;115586;1197;23090;-58
2021/04/25 09:33:47;;;;;;;4.33;0.50;;;;;;;8.07;39.72;100797.80;115340;1202;23091;-59
2021/04/25 09:36:18;;;;;;;2.37;0.40;;;;;;;8.25;39.45;100775.00;115090;1201;23157;-61
2021/04/25 09:38:47;;;;;;;1.77;0.30;;;;;;;8.31;39.32;100786.31;115179;1197;23089;-60
2021/04/25 09:41:26;;;;;;;1.20;0.33;;;;;;;8.35;40.72;100787.75;115077;1202;23098;-59
2021/04/25 09:43:55;;;;;;;2.40;0.40;;;;;;;8.38;40.82;100777.73;115200;1202;23086;-58
2021/04/25 09:46:26;;;;;;;3.27;0.47;;;;;;;8.40;40.20;100778.06;115081;1196;23455;-59
2021/04/25 09:48:56;;;;;;;2.53;0.30;;;;;;;8.48;40.03;100785.70;115288;1196;27252;-60
2021/04/25 09:51:26;;;;;;;1.70;0.25;;;;;;;8.62;38.66;100795.54;116029;1202;24899;-59
2021/04/25 09:54:05;;;;;;;1.55;0.40;;;;;;;8.66;37.25;100796.19;115318;1201;23385;-59
2021/04/25 09:56:38;;;;;;;3.10;0.33;;;;;;;8.65;38.65;100770.36;115443;1202;23096;-59
2021/04/25 09:59:14;;;;;;;4.13;0.60;;;;;;;8.68;38.19;100786.16;114971;1202;23157;-58
2021/04/25 10:02:14;;;;;;;3.90;0.50;;;;;;;8.76;37.31;100806.16;115046;1202;26175;-59
2021/04/25 10:05:15;;;;;;;2.30;0.50;;;;;;;8.84;37.01;100796.31;115104;1202;23360;-55
2021/04/25 10:08:30;;;;;;;3.40;0.30;;;;;;;8.88;36.69;100825.58;115144;1201;23102;-56
2021/04/25 10:18:35;;;;;;;1.70;0.30;;;;;;;8.78;36.70;100770.29;115459;1202;23116;-58
2021/04/25 10:22:14;;;;;;;1.27;0.20;;;;;;;8.76;36.76;100793.02;114921;1200;26939;-57
2021/04/25 10:25:53;;;;;;;1.70;0.30;;;;;;;8.65;36.11;100789.08;114733;1202;26140;-57
2021/04/25 10:28:49;;;;;;;1.80;0.20;;;;;;;8.60;35.16;100790.44;115212;1196;23489;-58
2021/04/25 10:31:52;;;;;;;3.37;0.33;;;;;;;8.56;35.67;100777.87;115109;1202;23078;-56
2021/04/25 10:35:39;;;;;;;6.53;0.23;;;;;;;8.53;35.98;100785.11;115210;1196;23251;-57
2021/04/25 10:39:17;;;;;;;2.03;0.37;;;;;;;8.66;35.46;100773.92;115264;1202;23246;-59
2021/04/25 10:42:28;;;;;;;1.30;0.30;;;;;;;8.85;36.71;100778.39;114936;1196;23087;-56
2021/04/25 10:45:18;;;;;;;2.35;0.20;;;;;;;9.04;35.71;100768.92;115031;1197;23089;-56
2021/04/25 10:48:09;;;;;;;1.30;0.20;;;;;;;9.06;34.49;100772.03;115566;1196;24805;-56
2021/04/25 10:50:47;;;;;;;2.00;0.30;;;;;;;9.03;35.19;100784.06;115166;1202;25994;-59
2021/04/25 10:53:21;;;;;;;4.70;0.70;;;;;;;9.02;34.89;100799.23;115255;1201;23096;-56
2021/04/25 10:55:51;;;;;;;2.90;0.35;;;;;;;8.94;34.76;100795.92;115255;1200;27153;-57
2021/04/25 10:58:24;;;;;;;2.27;0.30;;;;;;;8.85;34.72;100790.31;115331;1197;23096;-60
2021/04/25 11:00:55;;;;;;;2.40;0.30;;;;;;;8.80;35.40;100788.09;115101;1202;23157;-57
2021/04/25 11:03:43;;;;;;;1.40;0.20;;;;;;;8.79;35.25;100783.75;115037;1200;23089;-59
2021/04/25 11:06:26;;;;;;;0.95;0.20;;;;;;;8.83;35.40;100803.91;118589;1196;22933;-59
2021/04/25 11:08:56;;;;;;;1.17;0.30;;;;;;;8.92;33.21;100787.24;118187;1196;24145;-60
2021/04/25 11:11:34;;;;;;;2.63;0.33;;;;;;;9.03;36.05;100786.06;118130;1195;23435;-58
2021/04/25 11:14:05;;;;;;;3.70;0.47;;;;;;;9.22;35.51;100787.73;118725;1196;22901;-59
2021/04/25 11:16:44;;;;;;;2.40;0.40;;;;;;;9.33;35.80;100785.31;118784;1199;22894;-61
2021/04/25 11:19:14;;;;;;;2.47;0.30;;;;;;;9.36;35.34;100785.16;118796;1199;22931;-59
2021/04/25 11:21:45;;;;;;;1.63;0.40;;;;;;;9.37;35.67;100786.70;118745;1195;22990;-57
2021/04/25 11:24:37;;;;;;;3.07;0.30;;;;;;;9.44;35.84;100782.86;118760;1199;22812;-59
2021/04/25 11:27:09;;;;;;;1.47;0.30;;;;;;;9.46;35.25;100777.61;117209;1199;23078;-55
2021/04/25 11:30:05;;;;;;;4.07;0.40;;;;;;;9.45;35.67;100776.07;115379;1199;23092;-59
2021/04/25 11:32:38;;;;;;;2.05;0.40;;;;;;;9.44;35.71;100792.02;115080;1196;23084;-56
2021/04/25 11:35:13;;;;;;;2.20;0.30;;;;;;;9.39;35.48;100789.05;115348;1199;23239;-57
2021/04/25 11:37:44;;;;;;;2.77;0.30;;;;;;;9.27;34.85;100799.05;115248;1195;26255;-56
2021/04/25 11:40:20;;;;;;;6.77;0.40;;;;;;;9.15;35.24;100793.55;115265;1198;23083;-58
2021/04/25 11:42:50;;;;;;;2.20;0.30;;;;;;;8.99;34.86;100797.34;115360;1199;23086;-60
2021/04/25 11:45:22;;;;;;;2.27;0.30;;;;;;;8.91;34.92;100794.06;115520;1196;27356;-56
2021/04/25 11:47:53;;;;;;;2.50;0.40;;;;;;;8.86;35.28;100805.77;115364;1195;26211;-54
2021/04/25 11:50:28;;;;;;;2.33;0.30;;;;;;;8.77;35.60;100797.34;115431;1196;27339;-56
2021/04/25 11:52:58;;;;;;;3.30;0.37;;;;;;;8.77;34.68;100796.59;115363;1196;27400;-55
2021/04/25 11:55:28;;;;;;;1.33;0.27;;;;;;;8.84;36.75;100791.53;115479;1199;23099;-57